Time;durP1;ratioP1;P1;durP2;ratioP2;P2;SDS_P1;SDS_P2;PMS_P1;PMS_P2;Temp;Humidity;BMP_temperature;BMP_pressure;BME280_temperature;BME280_humidity;BME280_pressure;Samples;Min_cycle;Max_cycle;Signal;HPM_P1;HPM_P2
2023/03/24 00:01:44;;;;;;;;;;;;;;;;;;5063512;28;19912;-80
2023/03/24 00:04:09;;;;;;;;;;;;;;;;;;5072017;28;19912;-81
2023/03/24 00:06:35;;;;;;;;;;;;;;;;;;5046608;28;19912;-81
2023/03/24 00:09:02;;;;;;;;;;;;;;;;;;5072888;28;20002;-81
2023/03/24 00:11:28;;;;;;;;;;;;;;;;;;5072727;28;19912;-81
2023/03/24 00:13:57;;;;;;;;;;;;;;;;;;5072472;28;19908;-81
2023/03/24 00:16:23;;;;;;;;;;;;;;;;;;5076818;28;19912;-80
2023/03/24 00:18:51;;;;;;;;;;;;;;;;;;5063461;28;20006;-81
2023/03/24 00:21:17;;;;;;;;;;;;;;;;;;5055553;28;19935;-80
2023/03/24 00:23:42;;;;;;;;;;;;;;;;;;5074317;28;20374;-80
2023/03/24 00:26:08;;;;;;;;;;;;;;;;;;5074370;28;20505;-80
2023/03/24 00:28:33;;;;;;;;;;;;;;;;;;5055491;28;19915;-80
2023/03/24 00:30:58;;;;;;;;;;;;;;;;;;5073202;28;19969;-80
2023/03/24 00:33:24;;;;;;;;;;;;;;;;;;5066997;28;19912;-81
2023/03/24 00:35:49;;;;;;;;;;;;;;;;;;5068330;28;19916;-81
2023/03/24 00:38:15;;;;;;;;;;;;;;;;;;5072618;28;20359;-80
2023/03/24 00:40:43;;;;;;;;;;;;;;;;;;5070652;28;20034;-81
2023/03/24 00:43:09;;;;;;;;;;;;;;;;;;5058722;28;19916;-80
2023/03/24 00:45:35;;;;;;;;;;;;;;;;;;5072542;28;20366;-80
2023/03/24 00:48:00;;;;;;;;;;;;;;;;;;5055597;28;19931;-81
2023/03/24 00:50:25;;;;;;;;;;;;;;;;;;5054405;28;20023;-80
2023/03/24 00:52:51;;;;;;;;;;;;;;;;;;5072327;28;19920;-81
2023/03/24 00:55:16;;;;;;;;;;;;;;;;;;5072293;28;20367;-80
2023/03/24 00:57:49;;;;;;;;;;;;;;;;;;5054119;28;20002;-81
2023/03/24 01:00:18;;;;;;;;;;;;;;;;;;5070721;28;19912;-81
2023/03/24 01:02:45;;;;;;;;;;;;;;;;;;5072116;28;19916;-80
2023/03/24 01:05:10;;;;;;;;;;;;;;;;;;5062698;28;19959;-80
2023/03/24 01:07:40;;;;;;;;;;;;;;;;;;5072053;28;19947;-81
2023/03/24 01:10:07;;;;;;;;;;;;;;;;;;5037907;28;19912;-81
2023/03/24 01:12:33;;;;;;;;;;;;;;;;;;5055069;28;20268;-81
2023/03/24 01:14:58;;;;;;;;;;;;;;;;;;5053537;28;19912;-80
2023/03/24 01:17:28;;;;;;;;;;;;;;;;;;5072153;28;20363;-81
2023/03/24 01:19:53;;;;;;;;;;;;;;;;;;5069549;28;19919;-81
2023/03/24 01:22:19;;;;;;;;;;;;;;;;;;5070073;28;19912;-81
2023/03/24 01:24:44;;;;;;;;;;;;;;;;;;5072000;28;19923;-81
2023/03/24 01:27:10;;;;;;;;;;;;;;;;;;5070054;28;20385;-80
2023/03/24 01:29:36;;;;;;;;;;;;;;;;;;5071476;28;20456;-81
2023/03/24 01:32:01;;;;;;;;;;;;;;;;;;5070673;28;19908;-81
2023/03/24 01:34:26;;;;;;;;;;;;;;;;;;5071401;28;19936;-80
2023/03/24 01:36:52;;;;;;;;;;;;;;;;;;5072070;28;19908;-81
2023/03/24 01:39:17;;;;;;;;;;;;;;;;;;5056148;28;20015;-79
2023/03/24 01:41:42;;;;;;;;;;;;;;;;;;5070130;28;19956;-80
2023/03/24 01:44:08;;;;;;;;;;;;;;;;;;5069641;28;19920;-80
2023/03/24 01:46:33;;;;;;;;;;;;;;;;;;5072049;28;20636;-80
2023/03/24 01:48:58;;;;;;;;;;;;;;;;;;5072028;28;19917;-80
2023/03/24 01:51:24;;;;;;;;;;;;;;;;;;5071521;28;19957;-80
2023/03/24 01:53:49;;;;;;;;;;;;;;;;;;5053642;28;20007;-81
2023/03/24 01:56:15;;;;;;;;;;;;;;;;;;5053930;28;19920;-80
2023/03/24 01:58:41;;;;;;;;;;;;;;;;;;5053658;28;19912;-80
2023/03/24 02:01:14;;;;;;;;;;;;;;;;;;5061479;28;19909;-80
2023/03/24 02:03:46;;;;;;;;;;;;;;;;;;5072133;28;19912;-82
2023/03/24 02:06:11;;;;;;;;;;;;;;;;;;5062143;28;19912;-80
2023/03/24 02:08:37;;;;;;;;;;;;;;;;;;5071215;28;19908;-80
2023/03/24 02:11:02;;;;;;;;;;;;;;;;;;5056612;28;19916;-80
2023/03/24 02:13:36;;;;;;;;;;;;;;;;;;5038354;28;20287;-80
2023/03/24 02:16:01;;;;;;;;;;;;;;;;;;5063167;28;19912;-80
2023/03/24 02:18:27;;;;;;;;;;;;;;;;;;5069763;28;20320;-80
2023/03/24 02:20:52;;;;;;;;;;;;;;;;;;5071233;28;19912;-80
2023/03/24 02:23:18;;;;;;;;;;;;;;;;;;5056302;28;19908;-80
2023/03/24 02:25:43;;;;;;;;;;;;;;;;;;5071594;28;20414;-80
2023/03/24 02:28:08;;;;;;;;;;;;;;;;;;5072923;28;19913;-80
2023/03/24 02:30:34;;;;;;;;;;;;;;;;;;5059833;28;20302;-80
2023/03/24 02:32:59;;;;;;;;;;;;;;;;;;5072507;28;19915;-80
2023/03/24 02:35:25;;;;;;;;;;;;;;;;;;5064215;28;20359;-80
2023/03/24 02:37:50;;;;;;;;;;;;;;;;;;5055255;28;20248;-80
2023/03/24 02:40:16;;;;;;;;;;;;;;;;;;5073030;28;19934;-80
2023/03/24 02:42:41;;;;;;;;;;;;;;;;;;5059320;28;19924;-80
2023/03/24 02:45:07;;;;;;;;;;;;;;;;;;5072365;28;20444;-80
2023/03/24 02:47:32;;;;;;;;;;;;;;;;;;5074291;28;19908;-81
2023/03/24 02:49:57;;;;;;;;;;;;;;;;;;5069187;28;19912;-81
2023/03/24 02:52:23;;;;;;;;;;;;;;;;;;5072223;28;19908;-81
2023/03/24 02:54:50;;;;;;;;;;;;;;;;;;5073010;28;20329;-80
2023/03/24 02:57:16;;;;;;;;;;;;;;;;;;5073845;28;19908;-81
2023/03/24 03:00:00;;;;;;;;;;;;;;;;;;5074297;28;19923;-81
2023/03/24 03:02:45;;;;;;;;;;;;;;;;;;5071572;28;19934;-83
2023/03/24 03:05:12;;;;;;;;;;;;;;;;;;5074206;28;19916;-80
2023/03/24 03:07:40;;;;;;;;;;;;;;;;;;5072521;28;19909;-81
2023/03/24 03:10:05;;;;;;;;;;;;;;;;;;5073808;28;19912;-80
2023/03/24 03:12:31;;;;;;;;;;;;;;;;;;5071895;28;19908;-81
2023/03/24 03:14:57;;;;;;;;;;;;;;;;;;5060832;28;20007;-81
2023/03/24 03:17:22;;;;;;;;;;;;;;;;;;5074085;28;19923;-81
2023/03/24 03:19:49;;;;;;;;;;;;;;;;;;5057450;28;20228;-81
2023/03/24 03:22:14;;;;;;;;;;;;;;;;;;5071822;28;19909;-82
2023/03/24 03:24:40;;;;;;;;;;;;;;;;;;5070899;28;20311;-82
2023/03/24 03:27:07;;;;;;;;;;;;;;;;;;5064628;28;19909;-81
2023/03/24 03:29:32;;;;;;;;;;;;;;;;;;5073812;28;20398;-81
2023/03/24 03:31:59;;;;;;;;;;;;;;;;;;5074078;28;19943;-81
2023/03/24 03:34:26;;;;;;;;;;;;;;;;;;5073569;28;19934;-81
2023/03/24 03:36:51;;;;;;;;;;;;;;;;;;5073427;28;19908;-81
2023/03/24 03:39:16;;;;;;;;;;;;;;;;;;5075594;28;20281;-81
2023/03/24 03:41:42;;;;;;;;;;;;;;;;;;5072656;28;19920;-81
2023/03/24 03:44:08;;;;;;;;;;;;;;;;;;5073055;28;19973;-81
2023/03/24 03:46:33;;;;;;;;;;;;;;;;;;5072004;28;20007;-83
2023/03/24 03:48:59;;;;;;;;;;;;;;;;;;5057355;28;19944;-80
2023/03/24 03:51:25;;;;;;;;;;;;;;;;;;5055597;28;19908;-81
2023/03/24 03:53:57;;;;;;;;;;;;;;;;;;5072867;28;19913;-81
2023/03/24 03:56:22;;;;;;;;;;;;;;;;;;5038513;28;19963;-81
2023/03/24 03:58:58;;;;;;;;;;;;;;;;;;5068112;28;19908;-81
2023/03/24 04:01:24;;;;;;;;;;;;;;;;;;5055740;28;19919;-81
2023/03/24 04:04:20;;;;;;;;;;;;;;;;;;5055384;28;19962;-80
2023/03/24 04:07:09;;;;;;;;;;;;;;;;;;5064361;28;19916;-81
2023/03/24 04:09:36;;;;;;;;;;;;;;;;;;5055424;28;20331;-80
2023/03/24 04:12:02;;;;;;;;;;;;;;;;;;5055296;28;19982;-81
2023/03/24 04:14:36;;;;;;;;;;;;;;;;;;5072968;28;19956;-80
2023/03/24 04:17:24;;;;;;;;;;;;;;;;;;5039725;28;20684;-78
2023/03/24 04:19:50;;;;;;;;;;;;;;;;;;5060753;28;19995;-79
2023/03/24 04:22:16;;;;;;;;;;;;;;;;;;5060283;28;19954;-79
2023/03/24 04:24:42;;;;;;;;;;;;;;;;;;5064006;28;19916;-79
2023/03/24 04:27:10;;;;;;;;;;;;;;;;;;5060228;28;20429;-79
2023/03/24 04:29:41;;;;;;;;;;;;;;;;;;5061504;28;20331;-80
2023/03/24 04:32:06;;;;;;;;;;;;;;;;;;5059877;28;19958;-79
2023/03/24 04:34:32;;;;;;;;;;;;;;;;;;5054585;28;19974;-81
2023/03/24 04:37:04;;;;;;;;;;;;;;;;;;5054141;28;19913;-80
2023/03/24 04:39:57;;;;;;;;;;;;;;;;;;5071523;28;19917;-81
2023/03/24 04:42:24;;;;;;;;;;;;;;;;;;5066556;28;19920;-80
2023/03/24 04:44:50;;;;;;;;;;;;;;;;;;5038609;28;19919;-79
2023/03/24 04:47:21;;;;;;;;;;;;;;;;;;5052095;28;19919;-81
2023/03/24 04:50:01;;;;;;;;;;;;;;;;;;5053484;28;19912;-81
2023/03/24 04:52:26;;;;;;;;;;;;;;;;;;5063541;28;19920;-81
2023/03/24 04:54:52;;;;;;;;;;;;;;;;;;5054357;28;19909;-83
2023/03/24 04:57:17;;;;;;;;;;;;;;;;;;5070478;28;19987;-83
2023/03/24 04:59:47;;;;;;;;;;;;;;;;;;5070216;28;19947;-84
2023/03/24 05:02:13;;;;;;;;;;;;;;;;;;5050334;28;19912;-82
2023/03/24 05:04:54;;;;;;;;;;;;;;;;;;5053268;28;19959;-80
2023/03/24 05:07:39;;;;;;;;;;;;;;;;;;5055647;28;19917;-78
2023/03/24 05:10:08;;;;;;;;;;;;;;;;;;5059456;28;19958;-82
2023/03/24 05:12:43;;;;;;;;;;;;;;;;;;5064034;28;20379;-80
2023/03/24 05:15:27;;;;;;;;;;;;;;;;;;5060348;28;19965;-82
2023/03/24 05:18:08;;;;;;;;;;;;;;;;;;5061468;28;19951;-80
2023/03/24 05:20:34;;;;;;;;;;;;;;;;;;5064087;28;19952;-83
2023/03/24 05:23:08;;;;;;;;;;;;;;;;;;5061452;28;19913;-84
2023/03/24 05:25:34;;;;;;;;;;;;;;;;;;5047829;28;19916;-84
2023/03/24 05:27:59;;;;;;;;;;;;;;;;;;5064257;28;19915;-83
2023/03/24 05:30:25;;;;;;;;;;;;;;;;;;5065014;28;19913;-83
2023/03/24 05:32:56;;;;;;;;;;;;;;;;;;5065096;28;19908;-83
2023/03/24 05:35:21;;;;;;;;;;;;;;;;;;5070874;28;20339;-82
2023/03/24 05:37:47;;;;;;;;;;;;;;;;;;5062329;28;19931;-82
2023/03/24 05:40:14;;;;;;;;;;;;;;;;;;5058729;28;19921;-82
2023/03/24 05:42:46;;;;;;;;;;;;;;;;;;5050233;28;19912;-83
2023/03/24 05:45:12;;;;;;;;;;;;;;;;;;5058405;28;19917;-83
2023/03/24 05:47:38;;;;;;;;;;;;;;;;;;5049820;28;19916;-83
2023/03/24 05:50:04;;;;;;;;;;;;;;;;;;5033531;28;20371;-83
2023/03/24 05:52:30;;;;;;;;;;;;;;;;;;5049994;28;19935;-84
2023/03/24 05:55:09;;;;;;;;;;;;;;;;;;5048700;28;19973;-83
2023/03/24 05:57:35;;;;;;;;;;;;;;;;;;5041886;28;20268;-84
2023/03/24 06:00:23;;;;;;;;;;;;;;;;;;5065384;28;19916;-84
2023/03/24 06:03:06;;;;;;;;;;;;;;;;;;5067206;28;19990;-83
2023/03/24 06:05:44;;;;;;;;;;;;;;;;;;5062079;28;20326;-84
2023/03/24 06:08:10;;;;;;;;;;;;;;;;;;5059509;28;20004;-83
2023/03/24 06:10:36;;;;;;;;;;;;;;;;;;5065380;28;19999;-83
2023/03/24 06:13:02;;;;;;;;;;;;;;;;;;5055245;28;19912;-83
2023/03/24 06:15:29;;;;;;;;;;;;;;;;;;5065262;28;19913;-83
2023/03/24 06:18:06;;;;;;;;;;;;;;;;;;5050737;28;19912;-83
2023/03/24 06:20:32;;;;;;;;;;;;;;;;;;5063671;28;19947;-85
2023/03/24 06:23:06;;;;;;;;;;;;;;;;;;5055047;28;19908;-83
2023/03/24 06:25:52;;;;;;;;;;;;;;;;;;5056525;28;20363;-83
2023/03/24 06:28:24;;;;;;;;;;;;;;;;;;5054699;28;19913;-84
2023/03/24 06:30:51;;;;;;;;;;;;;;;;;;5053575;28;19913;-82
2023/03/24 06:33:24;;;;;;;;;;;;;;;;;;5052934;28;19909;-84
2023/03/24 06:35:51;;;;;;;;;;;;;;;;;;5052846;28;20346;-84
2023/03/24 06:38:16;;;;;;;;;;;;;;;;;;5052878;28;19913;-83
2023/03/24 06:40:43;;;;;;;;;;;;;;;;;;5045435;28;20430;-83
2023/03/24 06:43:08;;;;;;;;;;;;;;;;;;5072342;28;19916;-83
2023/03/24 06:45:38;;;;;;;;;;;;;;;;;;5054866;28;19924;-83
2023/03/24 06:48:04;;;;;;;;;;;;;;;;;;5061756;28;19913;-84
2023/03/24 06:50:33;;;;;;;;;;;;;;;;;;5036413;28;20367;-83
2023/03/24 06:53:00;;;;;;;;;;;;;;;;;;5036348;28;19908;-84
2023/03/24 06:55:27;;;;;;;;;;;;;;;;;;5052843;28;19912;-84
2023/03/24 06:57:53;;;;;;;;;;;;;;;;;;5052939;28;19995;-84
2023/03/24 07:00:30;;;;;;;;;;;;;;;;;;5052826;28;20423;-83
2023/03/24 07:03:25;;;;;;;;;;;;;;;;;;4999689;28;19917;-84
2023/03/24 07:06:13;;;;;;;;;;;;;;;;;;5051776;28;19916;-84
2023/03/24 07:08:39;;;;;;;;;;;;;;;;;;5052518;28;20460;-84
2023/03/24 07:11:15;;;;;;;;;;;;;;;;;;;;;
2023/03/24 07:13:53;;;;;;;;;;;;;;;;;;5052271;28;20003;-84
2023/03/24 07:16:19;;;;;;;;;;;;;;;;;;5052976;28;20012;-83
2023/03/24 07:18:47;;;;;;;;;;;;;;;;;;5052663;28;20326;-83
2023/03/24 07:21:13;;;;;;;;;;;;;;;;;;5036176;28;19939;-83
2023/03/24 07:23:38;;;;;;;;;;;;;;;;;;5052308;28;20394;-83
2023/03/24 07:26:09;;;;;;;;;;;;;;;;;;5053010;28;20303;-84
2023/03/24 07:28:46;;;;;;;;;;;;;;;;;;5053552;28;19912;-85
2023/03/24 07:31:13;;;;;;;;;;;;;;;;;;5019998;28;19913;-83
2023/03/24 07:33:40;;;;;;;;;;;;;;;;;;5028365;28;19912;-83
2023/03/24 07:36:06;;;;;;;;;;;;;;;;;;5051897;28;20012;-85
2023/03/24 07:38:33;;;;;;;;;;;;;;;;;;5052927;28;20295;-83
2023/03/24 07:41:03;;;;;;;;;;;;;;;;;;5052992;28;19949;-85
2023/03/24 07:43:30;;;;;;;;;;;;;;;;;;5051901;28;19916;-85
2023/03/24 07:46:18;;;;;;;;;;;;;;;;;;5051591;28;19935;-85
2023/03/24 07:48:44;;;;;;;;;;;;;;;;;;5052895;28;20003;-84
2023/03/24 07:51:09;;;;;;;;;;;;;;;;;;5043858;28;19912;-84
2023/03/24 07:54:01;;;;;;;;;;;;;;;;;;5033529;28;19913;-84
2023/03/24 07:56:40;;;;;;;;;;;;;;;;;;5051663;28;19963;-84
2023/03/24 07:59:08;;;;;;;;;;;;;;;;;;5051244;28;19912;-84
2023/03/24 08:01:56;;;;;;;;;;;;;;;;;;5033685;28;19954;-83
2023/03/24 08:04:52;;;;;;;;;;;;;;;;;;5036302;28;19943;-83
2023/03/24 08:07:36;;;;;;;;;;;;;;;;;;5051687;28;20291;-84
2023/03/24 08:10:02;;;;;;;;;;;;;;;;;;5052111;28;19913;-84
2023/03/24 08:12:27;;;;;;;;;;;;;;;;;;5034428;28;19974;-84
2023/03/24 08:14:52;;;;;;;;;;;;;;;;;;5050990;28;19932;-85
2023/03/24 08:17:18;;;;;;;;;;;;;;;;;;5052239;28;19956;-84
2023/03/24 08:19:43;;;;;;;;;;;;;;;;;;5051095;28;19913;-85
2023/03/24 08:22:08;;;;;;;;;;;;;;;;;;5061415;28;19912;-85
2023/03/24 08:24:35;;;;;;;;;;;;;;;;;;5052754;28;19920;-86
2023/03/24 08:27:04;;;;;;;;;;;;;;;;;;5051877;28;19908;-85
2023/03/24 08:29:30;;;;;;;;;;;;;;;;;;5050241;28;19920;-84
2023/03/24 08:31:55;;;;;;;;;;;;;;;;;;5051056;28;19908;-83
2023/03/24 08:34:20;;;;;;;;;;;;;;;;;;5049854;28;19921;-83
2023/03/24 08:36:46;;;;;;;;;;;;;;;;;;5052506;28;19909;-83
2023/03/24 08:39:11;;;;;;;;;;;;;;;;;;5051843;28;19982;-84
2023/03/24 08:41:36;;;;;;;;;;;;;;;;;;5070531;28;20329;-84
2023/03/24 08:44:06;;;;;;;;;;;;;;;;;;5055006;28;19920;-84
2023/03/24 08:46:31;;;;;;;;;;;;;;;;;;5074933;28;19954;-84
2023/03/24 08:48:57;;;;;;;;;;;;;;;;;;5071903;28;19912;-85
2023/03/24 08:51:22;;;;;;;;;;;;;;;;;;5072643;28;19954;-85
2023/03/24 08:53:48;;;;;;;;;;;;;;;;;;5071905;28;19912;-85
2023/03/24 08:56:13;;;;;;;;;;;;;;;;;;5073555;28;19908;-86
2023/03/24 08:58:38;;;;;;;;;;;;;;;;;;5070993;28;20374;-84
2023/03/24 09:01:03;;;;;;;;;;;;;;;;;;5072119;28;20283;-83
2023/03/24 09:03:53;;;;;;;;;;;;;;;;;;5072469;28;20421;-84
2023/03/24 09:06:19;;;;;;;;;;;;;;;;;;5071736;28;19920;-84
2023/03/24 09:08:44;;;;;;;;;;;;;;;;;;5071922;28;19934;-84
2023/03/24 09:11:09;;;;;;;;;;;;;;;;;;5072048;28;19912;-84
2023/03/24 09:13:35;;;;;;;;;;;;;;;;;;5071769;28;19915;-84
2023/03/24 09:16:00;;;;;;;;;;;;;;;;;;5078625;28;19927;-86
2023/03/24 09:18:25;;;;;;;;;;;;;;;;;;5060158;28;20003;-86
2023/03/24 09:20:51;;;;;;;;;;;;;;;;;;5072520;28;19912;-85
2023/03/24 09:23:16;;;;;;;;;;;;;;;;;;5070624;28;20290;-85
2023/03/24 09:25:41;;;;;;;;;;;;;;;;;;5070890;28;19923;-85
2023/03/24 09:28:07;;;;;;;;;;;;;;;;;;5070668;28;20295;-85
2023/03/24 09:30:32;;;;;;;;;;;;;;;;;;5053307;28;19912;-84
2023/03/24 09:32:58;;;;;;;;;;;;;;;;;;5070610;28;20099;-84
2023/03/24 09:35:23;;;;;;;;;;;;;;;;;;5053612;28;20003;-85
2023/03/24 09:37:49;;;;;;;;;;;;;;;;;;5076068;28;20325;-83
2023/03/24 09:40:14;;;;;;;;;;;;;;;;;;5058909;28;19970;-84
2023/03/24 09:42:40;;;;;;;;;;;;;;;;;;5060052;28;19916;-83
2023/03/24 09:45:05;;;;;;;;;;;;;;;;;;5058512;28;19923;-85
2023/03/24 09:47:30;;;;;;;;;;;;;;;;;;5075419;28;19916;-84
2023/03/24 09:49:56;;;;;;;;;;;;;;;;;;5075627;28;19913;-85
2023/03/24 09:52:21;;;;;;;;;;;;;;;;;;5075490;28;19909;-83
2023/03/24 09:54:47;;;;;;;;;;;;;;;;;;5074600;28;19920;-84
2023/03/24 09:57:12;;;;;;;;;;;;;;;;;;5074779;28;19952;-84
2023/03/24 09:59:38;;;;;;;;;;;;;;;;;;5074284;28;20014;-84
2023/03/24 10:02:03;;;;;;;;;;;;;;;;;;5074423;28;19934;-84
2023/03/24 10:04:30;;;;;;;;;;;;;;;;;;5056666;28;19924;-85
2023/03/24 10:06:56;;;;;;;;;;;;;;;;;;5056642;28;19943;-84
2023/03/24 10:09:22;;;;;;;;;;;;;;;;;;5075205;28;19912;-84
2023/03/24 10:11:47;;;;;;;;;;;;;;;;;;5075092;28;20379;-84
2023/03/24 10:14:12;;;;;;;;;;;;;;;;;;5075031;28;19918;-83
2023/03/24 10:16:38;;;;;;;;;;;;;;;;;;5075193;28;19908;-84
2023/03/24 10:19:03;;;;;;;;;;;;;;;;;;5074889;28;19912;-84
2023/03/24 10:21:29;;;;;;;;;;;;;;;;;;5075846;28;19938;-85
2023/03/24 10:23:54;;;;;;;;;;;;;;;;;;5057051;28;19912;-85
2023/03/24 10:26:19;;;;;;;;;;;;;;;;;;5075278;28;20006;-84
2023/03/24 10:28:45;;;;;;;;;;;;;;;;;;5058352;28;20035;-84
2023/03/24 10:31:10;;;;;;;;;;;;;;;;;;5075234;28;19915;-84
2023/03/24 10:34:02;;;;;;;;;;;;;;;;;;5078215;28;19935;-84
2023/03/24 10:36:27;;;;;;;;;;;;;;;;;;5075645;28;19943;-85
2023/03/24 10:38:53;;;;;;;;;;;;;;;;;;5058626;28;19908;-84
2023/03/24 10:41:18;;;;;;;;;;;;;;;;;;5076088;28;19931;-84
2023/03/24 10:43:44;;;;;;;;;;;;;;;;;;5059230;28;19954;-84
2023/03/24 10:46:09;;;;;;;;;;;;;;;;;;5088651;28;19924;-84
2023/03/24 10:48:34;;;;;;;;;;;;;;;;;;5045459;28;20303;-84
2023/03/24 10:51:00;;;;;;;;;;;;;;;;;;5076925;28;19919;-85
2023/03/24 10:53:26;;;;;;;;;;;;;;;;;;5090176;28;19915;-83
2023/03/24 10:55:51;;;;;;;;;;;;;;;;;;5075555;28;19928;-83
2023/03/24 10:58:16;;;;;;;;;;;;;;;;;;5088782;28;19912;-83
2023/03/24 11:00:42;;;;;;;;;;;;;;;;;;5075865;28;19919;-84
2023/03/24 11:03:07;;;;;;;;;;;;;;;;;;5075148;28;20405;-83
2023/03/24 11:05:33;;;;;;;;;;;;;;;;;;5044393;28;20290;-83
2023/03/24 11:07:59;;;;;;;;;;;;;;;;;;5057073;28;20424;-84
2023/03/24 11:10:24;;;;;;;;;;;;;;;;;;5057728;28;19912;-83
2023/03/24 11:12:49;;;;;;;;;;;;;;;;;;5074726;28;19914;-84
2023/03/24 11:15:16;;;;;;;;;;;;;;;;;;5056552;28;19963;-83
2023/03/24 11:17:41;;;;;;;;;;;;;;;;;;5075466;28;19915;-84
2023/03/24 11:20:07;;;;;;;;;;;;;;;;;;5074345;28;19912;-84
2023/03/24 11:22:32;;;;;;;;;;;;;;;;;;5074515;28;19981;-84
2023/03/24 11:24:57;;;;;;;;;;;;;;;;;;5073370;28;19923;-82
2023/03/24 11:27:23;;;;;;;;;;;;;;;;;;5073320;28;20009;-84
2023/03/24 11:29:48;;;;;;;;;;;;;;;;;;5072677;28;20011;-84
2023/03/24 11:32:14;;;;;;;;;;;;;;;;;;5072193;28;19947;-82
2023/03/24 11:34:41;;;;;;;;;;;;;;;;;;5072942;28;19916;-85
2023/03/24 11:37:07;;;;;;;;;;;;;;;;;;5072546;28;20375;-83
2023/03/24 11:39:33;;;;;;;;;;;;;;;;;;5073872;28;19924;-84
2023/03/24 11:41:59;;;;;;;;;;;;;;;;;;5059500;28;19988;-84
2023/03/24 11:44:24;;;;;;;;;;;;;;;;;;5069339;28;20276;-84
2023/03/24 11:46:50;;;;;;;;;;;;;;;;;;5074622;28;20508;-83
2023/03/24 11:49:15;;;;;;;;;;;;;;;;;;5056596;28;19974;-83
2023/03/24 11:51:40;;;;;;;;;;;;;;;;;;5074215;28;19935;-83
2023/03/24 11:54:06;;;;;;;;;;;;;;;;;;5055964;28;19916;-85
2023/03/24 11:56:31;;;;;;;;;;;;;;;;;;5073642;28;19908;-83
2023/03/24 11:58:56;;;;;;;;;;;;;;;;;;5072999;28;20340;-84
2023/03/24 12:01:22;;;;;;;;;;;;;;;;;;5074559;28;19909;-83
2023/03/24 12:03:47;;;;;;;;;;;;;;;;;;5056714;28;19912;-83
2023/03/24 12:06:12;;;;;;;;;;;;;;;;;;5073728;28;19920;-83
2023/03/24 12:08:38;;;;;;;;;;;;;;;;;;5073437;28;20015;-85
2023/03/24 12:11:03;;;;;;;;;;;;;;;;;;5057166;28;19908;-84
2023/03/24 12:13:29;;;;;;;;;;;;;;;;;;5057773;28;19916;-86
2023/03/24 12:15:54;;;;;;;;;;;;;;;;;;5056645;28;20330;-84
2023/03/24 12:18:46;;;;;;;;;;;;;;;;;;5063305;28;20006;-84
2023/03/24 12:21:12;;;;;;;;;;;;;;;;;;5072947;28;19912;-83
2023/03/24 12:23:37;;;;;;;;;;;;;;;;;;5074946;28;20350;-85
2023/03/24 12:26:02;;;;;;;;;;;;;;;;;;5072723;28;19923;-85
2023/03/24 12:28:28;;;;;;;;;;;;;;;;;;5057212;28;19916;-85
2023/03/24 12:30:53;;;;;;;;;;;;;;;;;;5056515;28;19916;-84
2023/03/24 12:33:18;;;;;;;;;;;;;;;;;;5072919;28;19912;-84
2023/03/24 12:35:44;;;;;;;;;;;;;;;;;;5056940;28;19916;-84
2023/03/24 12:38:09;;;;;;;;;;;;;;;;;;5072600;28;19909;-83
2023/03/24 12:40:35;;;;;;;;;;;;;;;;;;5072025;28;20225;-84
2023/03/24 12:43:00;;;;;;;;;;;;;;;;;;5072728;28;19966;-85
2023/03/24 12:45:25;;;;;;;;;;;;;;;;;;5057323;28;20619;-85
2023/03/24 12:47:52;;;;;;;;;;;;;;;;;;5072812;28;19967;-83
2023/03/24 12:50:17;;;;;;;;;;;;;;;;;;5072129;28;20422;-84
2023/03/24 12:52:43;;;;;;;;;;;;;;;;;;5072813;28;19908;-84
2023/03/24 12:55:08;;;;;;;;;;;;;;;;;;5070806;28;19916;-84
2023/03/24 12:57:33;;;;;;;;;;;;;;;;;;5059684;28;20002;-84
2023/03/24 12:59:59;;;;;;;;;;;;;;;;;;5079096;28;19936;-84
2023/03/24 13:02:24;;;;;;;;;;;;;;;;;;5084609;28;20386;-83
2023/03/24 13:04:50;;;;;;;;;;;;;;;;;;5069865;28;19927;-84
2023/03/24 13:07:16;;;;;;;;;;;;;;;;;;5071974;28;19915;-83
2023/03/24 13:09:42;;;;;;;;;;;;;;;;;;5072102;28;19912;-84
2023/03/24 13:12:08;;;;;;;;;;;;;;;;;;5072077;28;19908;-84
2023/03/24 13:14:33;;;;;;;;;;;;;;;;;;5070955;28;19919;-85
2023/03/24 13:16:58;;;;;;;;;;;;;;;;;;5071708;28;19919;-84
2023/03/24 13:19:24;;;;;;;;;;;;;;;;;;5072080;28;19912;-85
2023/03/24 13:21:49;;;;;;;;;;;;;;;;;;5071967;28;19966;-85
2023/03/24 13:24:15;;;;;;;;;;;;;;;;;;5073343;28;19912;-83
2023/03/24 13:26:41;;;;;;;;;;;;;;;;;;5070605;28;20434;-82
2023/03/24 13:29:06;;;;;;;;;;;;;;;;;;5071922;28;19919;-83
2023/03/24 13:31:34;;;;;;;;;;;;;;;;;;5070548;28;20367;-84
2023/03/24 13:33:59;;;;;;;;;;;;;;;;;;5072190;28;20349;-84
2023/03/24 13:36:25;;;;;;;;;;;;;;;;;;5056963;28;19912;-84
2023/03/24 13:38:51;;;;;;;;;;;;;;;;;;5073012;28;19912;-84
2023/03/24 13:41:16;;;;;;;;;;;;;;;;;;5070334;28;19986;-84
2023/03/24 13:43:41;;;;;;;;;;;;;;;;;;5073878;28;19916;-84
2023/03/24 13:46:09;;;;;;;;;;;;;;;;;;5073188;28;19919;-83
2023/03/24 13:48:59;;;;;;;;;;;;;;;;;;5061090;28;19974;-84
2023/03/24 13:51:25;;;;;;;;;;;;;;;;;;5072868;28;19917;-83
2023/03/24 13:53:50;;;;;;;;;;;;;;;;;;5071190;28;19908;-84
2023/03/24 13:56:16;;;;;;;;;;;;;;;;;;5070643;28;19912;-83
2023/03/24 13:58:41;;;;;;;;;;;;;;;;;;5071231;28;19957;-84
2023/03/24 14:01:06;;;;;;;;;;;;;;;;;;5071060;28;19913;-83
2023/03/24 14:03:32;;;;;;;;;;;;;;;;;;5070950;28;19915;-83
2023/03/24 14:05:57;;;;;;;;;;;;;;;;;;5060288;28;19917;-83
2023/03/24 14:08:22;;;;;;;;;;;;;;;;;;5068966;28;19908;-83
2023/03/24 14:10:48;;;;;;;;;;;;;;;;;;5071017;28;20325;-83
2023/03/24 14:13:13;;;;;;;;;;;;;;;;;;5073709;28;19908;-85
2023/03/24 14:15:38;;;;;;;;;;;;;;;;;;5080922;28;20387;-84
2023/03/24 14:18:04;;;;;;;;;;;;;;;;;;5070557;28;19908;-83
2023/03/24 14:20:30;;;;;;;;;;;;;;;;;;5069224;28;20412;-84
2023/03/24 14:22:55;;;;;;;;;;;;;;;;;;5073185;28;19908;-84
2023/03/24 14:25:21;;;;;;;;;;;;;;;;;;5074582;28;20121;-82
2023/03/24 14:27:46;;;;;;;;;;;;;;;;;;5074554;28;19912;-83
2023/03/24 14:30:11;;;;;;;;;;;;;;;;;;5074257;28;20287;-83
2023/03/24 14:32:37;;;;;;;;;;;;;;;;;;5072880;28;19969;-84
2023/03/24 14:35:03;;;;;;;;;;;;;;;;;;5073021;28;19912;-84
2023/03/24 14:37:28;;;;;;;;;;;;;;;;;;5074964;28;20042;-84
2023/03/24 14:39:56;;;;;;;;;;;;;;;;;;5074566;28;19936;-84
2023/03/24 14:42:21;;;;;;;;;;;;;;;;;;5074689;28;20449;-84
2023/03/24 14:44:51;;;;;;;;;;;;;;;;;;5074754;28;20062;-85
2023/03/24 14:47:16;;;;;;;;;;;;;;;;;;5056824;28;19958;-84
2023/03/24 14:49:41;;;;;;;;;;;;;;;;;;5074551;28;20005;-82
2023/03/24 14:52:07;;;;;;;;;;;;;;;;;;5059478;28;19908;-82
2023/03/24 14:54:32;;;;;;;;;;;;;;;;;;5075751;28;19916;-83
2023/03/24 14:56:58;;;;;;;;;;;;;;;;;;5075293;28;19908;-83
2023/03/24 14:59:23;;;;;;;;;;;;;;;;;;5075733;28;19916;-83
2023/03/24 15:01:48;;;;;;;;;;;;;;;;;;5069432;28;19920;-83
2023/03/24 15:04:14;;;;;;;;;;;;;;;;;;5052636;28;19912;-85
2023/03/24 15:06:39;;;;;;;;;;;;;;;;;;5079124;28;19942;-83
2023/03/24 15:09:05;;;;;;;;;;;;;;;;;;5079521;28;19913;-83
2023/03/24 15:11:31;;;;;;;;;;;;;;;;;;5078950;28;20293;-82
2023/03/24 15:13:56;;;;;;;;;;;;;;;;;;5070876;28;19999;-82
2023/03/24 15:16:22;;;;;;;;;;;;;;;;;;5080484;28;20011;-85
2023/03/24 15:18:47;;;;;;;;;;;;;;;;;;5072394;28;19916;-84
2023/03/24 15:21:13;;;;;;;;;;;;;;;;;;5077677;28;19931;-83
2023/03/24 15:23:38;;;;;;;;;;;;;;;;;;5049210;28;20003;-82
2023/03/24 15:26:04;;;;;;;;;;;;;;;;;;5063633;28;20106;-84
2023/03/24 15:28:29;;;;;;;;;;;;;;;;;;5075279;28;20374;-85
2023/03/24 15:30:55;;;;;;;;;;;;;;;;;;5062791;28;20581;-85
2023/03/24 15:34:25;;;;;;;5.07;1.97;;;;;;;;;;5019564;28;20496;-83
2023/03/24 15:36:55;;;;;;;5.80;2.38;;;;;;;;;;5005184;28;20304;-83
2023/03/24 15:39:23;;;;;;;4.38;2.50;;;;;;;;;;5017243;28;20211;-83
2023/03/24 15:41:50;;;;;;;4.50;3.00;;;;;;;;;;4995245;28;20056;-84
2023/03/24 15:44:16;;;;;;;6.82;3.20;;;;;;;;;;4993082;28;20026;-84
2023/03/24 15:46:42;;;;;;;6.72;3.78;;;;;;;;;;5009417;28;20381;-85
2023/03/24 15:49:07;;;;;;;;;;;;;;;;;;5009044;28;20125;-83
2023/03/24 15:51:54;;;;;;;6.45;2.70;;;;;;;;;;5003144;28;20372;-83
2023/03/24 15:54:20;;;;;;;;;;;;;;;;;;5011701;28;20033;-83
2023/03/24 15:56:58;;;;;;;3.72;2.28;;;;;;;;;;5012727;28;19956;-83
2023/03/24 15:59:23;;;;;;;6.90;4.75;;;;;;;;;;5007115;28;20045;-82
2023/03/24 16:01:49;;;;;;;;;;;;;;;;;;5015154;28;20057;-84
2023/03/24 16:04:15;;;;;;;8.65;4.47;;;;;;;;;;5031074;28;19980;-83
2023/03/24 16:06:41;;;;;;;7.25;2.88;;;;;;;;;;4989515;28;21517;-83
2023/03/24 16:09:09;;;;;;;8.57;4.75;;;;;;;;;;4980950;28;20033;-82
2023/03/24 16:11:35;;;;;;;5.72;2.80;;;;;;;;;;4996535;28;20034;-83
2023/03/24 16:14:00;;;;;;;;;;;;;;;;;;5008308;28;20037;-83
2023/03/24 16:16:26;;;;;;;5.00;1.98;;;;;;;;;;5041426;28;19953;-83
2023/03/24 16:18:52;;;;;;;4.95;2.20;;;;;;;;;;5012510;28;20041;-83
2023/03/24 16:21:17;;;;;;;;;;;;;;;;;;5010013;28;20026;-83
2023/03/24 16:23:43;;;;;;;4.90;2.40;;;;;;;;;;5017698;28;20373;-84
2023/03/24 16:26:09;;;;;;;;;;;;;;;;;;5009805;28;20037;-84
2023/03/24 16:28:34;;;;;;;4.88;2.60;;;;;;;;;;5041505;28;19925;-83
2023/03/24 16:31:00;;;;;;;;;;;;;;;;;;5020928;28;20026;-84
2023/03/24 16:33:26;;;;;;;6.63;2.85;;;;;;;;;;5041101;28;20320;-84
2023/03/24 16:35:51;;;;;;;;;;;;;;;;;;4992953;28;20030;-84
2023/03/24 16:38:17;;;;;;;3.38;2.20;;;;;;;;;;5015398;28;19921;-83
2023/03/24 16:40:44;;;;;;;7.60;2.33;;;;;;;;;;5012930;28;20045;-83
2023/03/24 16:43:09;;;;;;;4.00;2.13;;;;;;;;;;4994229;28;20045;-82